sensor_id;sensor_type;location;lat;lon;timestamp;P1;durP1;ratioP1;P2;durP2;ratioP2
24901;SDS011;31328;51.402;0.016;2022-12-18T00:01:05;37.63;;;17.17;;
24901;SDS011;31328;51.402;0.016;2022-12-18T00:03:44;36.43;;;17.43;;
24901;SDS011;31328;51.402;0.016;2022-12-18T00:06:11;37.23;;;15.70;;
24901;SDS011;31328;51.402;0.016;2022-12-18T00:08:37;43.70;;;17.23;;
24901;SDS011;31328;51.402;0.016;2022-12-18T00:11:04;41.30;;;17.73;;
24901;SDS011;31328;51.402;0.016;2022-12-18T00:13:32;37.40;;;15.67;;
24901;SDS011;31328;51.402;0.016;2022-12-18T00:16:02;32.43;;;14.50;;
24901;SDS011;31328;51.402;0.016;2022-12-18T00:18:29;35.93;;;16.23;;
24901;SDS011;31328;51.402;0.016;2022-12-18T00:21:00;36.40;;;16.20;;
24901;SDS011;31328;51.402;0.016;2022-12-18T00:23:28;40.17;;;16.70;;
24901;SDS011;31328;51.402;0.016;2022-12-18T00:26:02;36.07;;;15.47;;
24901;SDS011;31328;51.402;0.016;2022-12-18T00:28:31;39.50;;;17.57;;
24901;SDS011;31328;51.402;0.016;2022-12-18T00:31:04;34.50;;;15.63;;
24901;SDS011;31328;51.402;0.016;2022-12-18T00:33:33;36.27;;;16.57;;
24901;SDS011;31328;51.402;0.016;2022-12-18T00:36:00;38.50;;;16.60;;
24901;SDS011;31328;51.402;0.016;2022-12-18T00:38:28;35.23;;;16.60;;
24901;SDS011;31328;51.402;0.016;2022-12-18T00:40:54;35.33;;;15.07;;
24901;SDS011;31328;51.402;0.016;2022-12-18T00:43:21;32.40;;;15.73;;
24901;SDS011;31328;51.402;0.016;2022-12-18T00:45:47;38.43;;;16.43;;
24901;SDS011;31328;51.402;0.016;2022-12-18T00:48:13;35.73;;;16.93;;
24901;SDS011;31328;51.402;0.016;2022-12-18T00:50:40;35.10;;;15.77;;
24901;SDS011;31328;51.402;0.016;2022-12-18T00:53:06;38.67;;;16.97;;
24901;SDS011;31328;51.402;0.016;2022-12-18T00:55:39;35.47;;;16.37;;
24901;SDS011;31328;51.402;0.016;2022-12-18T00:58:06;32.43;;;15.30;;
24901;SDS011;31328;51.402;0.016;2022-12-18T01:00:35;43.80;;;17.60;;
24901;SDS011;31328;51.402;0.016;2022-12-18T01:03:01;35.67;;;15.73;;
24901;SDS011;31328;51.402;0.016;2022-12-18T01:05:28;38.87;;;17.47;;
24901;SDS011;31328;51.402;0.016;2022-12-18T01:07:55;36.60;;;15.57;;
24901;SDS011;31328;51.402;0.016;2022-12-18T01:10:22;40.13;;;17.33;;
24901;SDS011;31328;51.402;0.016;2022-12-18T01:12:49;34.57;;;15.80;;
24901;SDS011;31328;51.402;0.016;2022-12-18T01:15:17;37.50;;;17.80;;
24901;SDS011;31328;51.402;0.016;2022-12-18T01:17:44;38.53;;;16.17;;
24901;SDS011;31328;51.402;0.016;2022-12-18T01:20:11;37.50;;;15.73;;
24901;SDS011;31328;51.402;0.016;2022-12-18T01:22:38;40.30;;;16.07;;
24901;SDS011;31328;51.402;0.016;2022-12-18T01:25:07;32.20;;;15.50;;
24901;SDS011;31328;51.402;0.016;2022-12-18T01:27:33;39.53;;;16.60;;
24901;SDS011;31328;51.402;0.016;2022-12-18T01:30:00;31.50;;;15.20;;
24901;SDS011;31328;51.402;0.016;2022-12-18T01:32:28;36.50;;;15.30;;
24901;SDS011;31328;51.402;0.016;2022-12-18T01:34:56;33.83;;;16.03;;
24901;SDS011;31328;51.402;0.016;2022-12-18T01:37:22;36.70;;;16.67;;
24901;SDS011;31328;51.402;0.016;2022-12-18T01:39:49;34.03;;;15.30;;
24901;SDS011;31328;51.402;0.016;2022-12-18T01:42:15;33.30;;;16.47;;
24901;SDS011;31328;51.402;0.016;2022-12-18T01:50:22;39.43;;;16.30;;
24901;SDS011;31328;51.402;0.016;2022-12-18T01:55:51;36.97;;;15.97;;
24901;SDS011;31328;51.402;0.016;2022-12-18T01:58:23;34.20;;;15.73;;
24901;SDS011;31328;51.402;0.016;2022-12-18T02:01:10;33.47;;;15.27;;
24901;SDS011;31328;51.402;0.016;2022-12-18T02:03:36;35.63;;;14.80;;
24901;SDS011;31328;51.402;0.016;2022-12-18T02:06:13;36.70;;;15.83;;
24901;SDS011;31328;51.402;0.016;2022-12-18T02:09:07;33.87;;;15.20;;
24901;SDS011;31328;51.402;0.016;2022-12-18T02:27:51;31.00;;;13.47;;
24901;SDS011;31328;51.402;0.016;2022-12-18T02:30:20;31.13;;;13.77;;
24901;SDS011;31328;51.402;0.016;2022-12-18T02:32:51;35.70;;;15.23;;
24901;SDS011;31328;51.402;0.016;2022-12-18T02:35:20;34.60;;;13.23;;
24901;SDS011;31328;51.402;0.016;2022-12-18T02:37:53;33.60;;;14.10;;
24901;SDS011;31328;51.402;0.016;2022-12-18T02:40:20;25.90;;;12.20;;
24901;SDS011;31328;51.402;0.016;2022-12-18T02:42:49;33.77;;;14.23;;
24901;SDS011;31328;51.402;0.016;2022-12-18T02:45:17;31.13;;;12.93;;
24901;SDS011;31328;51.402;0.016;2022-12-18T02:47:46;26.37;;;12.67;;
24901;SDS011;31328;51.402;0.016;2022-12-18T02:50:30;30.77;;;13.37;;
24901;SDS011;31328;51.402;0.016;2022-12-18T02:59:02;29.80;;;13.10;;
24901;SDS011;31328;51.402;0.016;2022-12-18T03:01:49;27.30;;;12.23;;
24901;SDS011;31328;51.402;0.016;2022-12-18T03:07:05;28.47;;;11.90;;
24901;SDS011;31328;51.402;0.016;2022-12-18T03:09:38;25.03;;;11.93;;
24901;SDS011;31328;51.402;0.016;2022-12-18T03:12:21;27.07;;;12.30;;
24901;SDS011;31328;51.402;0.016;2022-12-18T03:15:08;28.50;;;11.73;;
24901;SDS011;31328;51.402;0.016;2022-12-18T03:17:50;27.07;;;11.60;;
24901;SDS011;31328;51.402;0.016;2022-12-18T03:20:26;31.87;;;12.57;;
24901;SDS011;31328;51.402;0.016;2022-12-18T03:23:00;26.70;;;10.67;;
24901;SDS011;31328;51.402;0.016;2022-12-18T03:25:31;29.03;;;12.60;;
24901;SDS011;31328;51.402;0.016;2022-12-18T03:28:00;26.73;;;12.20;;
24901;SDS011;31328;51.402;0.016;2022-12-18T03:30:31;26.57;;;10.70;;
24901;SDS011;31328;51.402;0.016;2022-12-18T03:33:17;28.93;;;12.03;;
24901;SDS011;31328;51.402;0.016;2022-12-18T03:35:50;27.00;;;12.47;;
24901;SDS011;31328;51.402;0.016;2022-12-18T03:38:18;26.67;;;11.33;;
24901;SDS011;31328;51.402;0.016;2022-12-18T03:40:59;29.43;;;11.07;;
24901;SDS011;31328;51.402;0.016;2022-12-18T03:44:14;25.07;;;10.37;;
24901;SDS011;31328;51.402;0.016;2022-12-18T03:47:05;27.57;;;12.00;;
24901;SDS011;31328;51.402;0.016;2022-12-18T03:52:57;28.33;;;13.50;;
24901;SDS011;31328;51.402;0.016;2022-12-18T03:55:44;29.23;;;13.77;;
24901;SDS011;31328;51.402;0.016;2022-12-18T03:58:11;26.47;;;11.23;;
24901;SDS011;31328;51.402;0.016;2022-12-18T04:01:04;24.70;;;11.63;;
24901;SDS011;31328;51.402;0.016;2022-12-18T04:03:39;27.80;;;11.33;;
24901;SDS011;31328;51.402;0.016;2022-12-18T04:06:07;26.50;;;12.73;;
24901;SDS011;31328;51.402;0.016;2022-12-18T04:08:34;27.00;;;11.80;;
24901;SDS011;31328;51.402;0.016;2022-12-18T04:11:05;23.97;;;11.60;;
24901;SDS011;31328;51.402;0.016;2022-12-18T04:13:34;33.10;;;11.80;;
24901;SDS011;31328;51.402;0.016;2022-12-18T04:16:05;26.40;;;12.30;;
24901;SDS011;31328;51.402;0.016;2022-12-18T04:18:31;27.47;;;12.30;;
24901;SDS011;31328;51.402;0.016;2022-12-18T04:20:59;25.73;;;11.80;;
24901;SDS011;31328;51.402;0.016;2022-12-18T04:23:27;25.37;;;11.80;;
24901;SDS011;31328;51.402;0.016;2022-12-18T04:25:57;23.47;;;11.70;;
24901;SDS011;31328;51.402;0.016;2022-12-18T04:28:39;25.90;;;12.97;;
24901;SDS011;31328;51.402;0.016;2022-12-18T04:31:06;26.73;;;12.90;;
24901;SDS011;31328;51.402;0.016;2022-12-18T04:33:32;24.83;;;10.77;;
24901;SDS011;31328;51.402;0.016;2022-12-18T04:35:59;30.60;;;12.83;;
24901;SDS011;31328;51.402;0.016;2022-12-18T04:38:25;24.83;;;10.90;;
24901;SDS011;31328;51.402;0.016;2022-12-18T04:41:01;25.50;;;12.00;;
24901;SDS011;31328;51.402;0.016;2022-12-18T04:43:27;27.13;;;10.93;;
24901;SDS011;31328;51.402;0.016;2022-12-18T04:45:53;33.73;;;13.07;;
24901;SDS011;31328;51.402;0.016;2022-12-18T04:48:28;26.50;;;11.57;;
24901;SDS011;31328;51.402;0.016;2022-12-18T04:50:54;27.30;;;12.53;;
24901;SDS011;31328;51.402;0.016;2022-12-18T04:53:20;28.40;;;13.47;;
24901;SDS011;31328;51.402;0.016;2022-12-18T04:55:46;29.47;;;13.47;;
24901;SDS011;31328;51.402;0.016;2022-12-18T04:58:13;26.07;;;11.80;;
24901;SDS011;31328;51.402;0.016;2022-12-18T05:00:39;33.07;;;13.40;;
24901;SDS011;31328;51.402;0.016;2022-12-18T05:03:05;28.00;;;12.10;;
24901;SDS011;31328;51.402;0.016;2022-12-18T05:05:34;30.93;;;13.23;;
24901;SDS011;31328;51.402;0.016;2022-12-18T05:08:00;26.40;;;12.70;;
24901;SDS011;31328;51.402;0.016;2022-12-18T05:10:27;31.10;;;13.77;;
24901;SDS011;31328;51.402;0.016;2022-12-18T05:12:53;36.13;;;13.33;;
24901;SDS011;31328;51.402;0.016;2022-12-18T05:15:29;26.87;;;12.20;;
24901;SDS011;31328;51.402;0.016;2022-12-18T05:17:56;31.00;;;12.83;;
24901;SDS011;31328;51.402;0.016;2022-12-18T05:20:24;34.23;;;14.07;;
24901;SDS011;31328;51.402;0.016;2022-12-18T05:22:51;28.77;;;12.40;;
24901;SDS011;31328;51.402;0.016;2022-12-18T05:25:17;27.67;;;12.77;;
24901;SDS011;31328;51.402;0.016;2022-12-18T05:27:44;30.17;;;13.40;;
24901;SDS011;31328;51.402;0.016;2022-12-18T05:30:11;25.93;;;11.97;;
24901;SDS011;31328;51.402;0.016;2022-12-18T05:32:38;30.53;;;13.10;;
24901;SDS011;31328;51.402;0.016;2022-12-18T05:35:04;31.63;;;15.00;;
24901;SDS011;31328;51.402;0.016;2022-12-18T05:37:33;27.03;;;13.40;;
24901;SDS011;31328;51.402;0.016;2022-12-18T05:39:59;28.93;;;13.10;;
24901;SDS011;31328;51.402;0.016;2022-12-18T05:42:26;28.97;;;14.27;;
24901;SDS011;31328;51.402;0.016;2022-12-18T05:44:52;28.00;;;12.83;;
24901;SDS011;31328;51.402;0.016;2022-12-18T05:47:18;30.90;;;13.47;;
24901;SDS011;31328;51.402;0.016;2022-12-18T05:49:44;30.60;;;15.07;;
24901;SDS011;31328;51.402;0.016;2022-12-18T05:52:11;31.50;;;15.07;;
24901;SDS011;31328;51.402;0.016;2022-12-18T05:54:37;31.73;;;14.43;;
24901;SDS011;31328;51.402;0.016;2022-12-18T05:57:04;30.77;;;14.70;;
24901;SDS011;31328;51.402;0.016;2022-12-18T05:59:30;33.60;;;14.33;;
24901;SDS011;31328;51.402;0.016;2022-12-18T06:01:57;32.13;;;14.03;;
24901;SDS011;31328;51.402;0.016;2022-12-18T06:04:23;35.03;;;13.60;;
24901;SDS011;31328;51.402;0.016;2022-12-18T06:06:49;28.73;;;15.00;;
24901;SDS011;31328;51.402;0.016;2022-12-18T06:09:15;28.60;;;13.97;;
24901;SDS011;31328;51.402;0.016;2022-12-18T06:11:42;30.67;;;13.67;;
24901;SDS011;31328;51.402;0.016;2022-12-18T06:14:08;32.40;;;14.43;;
24901;SDS011;31328;51.402;0.016;2022-12-18T06:16:35;30.40;;;14.07;;
24901;SDS011;31328;51.402;0.016;2022-12-18T06:19:03;30.70;;;13.97;;
24901;SDS011;31328;51.402;0.016;2022-12-18T06:21:31;30.03;;;13.80;;
24901;SDS011;31328;51.402;0.016;2022-12-18T06:23:57;29.27;;;14.30;;
24901;SDS011;31328;51.402;0.016;2022-12-18T06:26:25;29.93;;;13.40;;
24901;SDS011;31328;51.402;0.016;2022-12-18T06:28:51;31.40;;;13.93;;
24901;SDS011;31328;51.402;0.016;2022-12-18T06:31:17;30.97;;;14.13;;
24901;SDS011;31328;51.402;0.016;2022-12-18T06:33:44;32.37;;;14.37;;
24901;SDS011;31328;51.402;0.016;2022-12-18T06:36:11;30.23;;;13.40;;
24901;SDS011;31328;51.402;0.016;2022-12-18T06:38:40;29.90;;;13.57;;
24901;SDS011;31328;51.402;0.016;2022-12-18T06:41:08;33.67;;;14.00;;
24901;SDS011;31328;51.402;0.016;2022-12-18T06:43:35;30.30;;;13.43;;
24901;SDS011;31328;51.402;0.016;2022-12-18T06:46:02;31.83;;;14.10;;
24901;SDS011;31328;51.402;0.016;2022-12-18T06:48:29;27.10;;;12.93;;
24901;SDS011;31328;51.402;0.016;2022-12-18T06:50:56;33.80;;;15.57;;
24901;SDS011;31328;51.402;0.016;2022-12-18T06:53:22;27.43;;;12.97;;
24901;SDS011;31328;51.402;0.016;2022-12-18T06:55:48;25.03;;;12.87;;
24901;SDS011;31328;51.402;0.016;2022-12-18T06:58:15;32.97;;;13.73;;
24901;SDS011;31328;51.402;0.016;2022-12-18T07:00:41;29.30;;;13.40;;
24901;SDS011;31328;51.402;0.016;2022-12-18T07:03:08;27.77;;;13.50;;
24901;SDS011;31328;51.402;0.016;2022-12-18T07:05:34;27.50;;;13.33;;
24901;SDS011;31328;51.402;0.016;2022-12-18T07:08:05;26.67;;;12.73;;
24901;SDS011;31328;51.402;0.016;2022-12-18T07:10:32;31.97;;;13.67;;
24901;SDS011;31328;51.402;0.016;2022-12-18T07:12:58;32.27;;;12.50;;
24901;SDS011;31328;51.402;0.016;2022-12-18T07:15:25;29.33;;;14.23;;
24901;SDS011;31328;51.402;0.016;2022-12-18T07:17:51;30.63;;;13.80;;
24901;SDS011;31328;51.402;0.016;2022-12-18T07:20:17;27.63;;;13.77;;
24901;SDS011;31328;51.402;0.016;2022-12-18T07:22:44;28.57;;;12.53;;
24901;SDS011;31328;51.402;0.016;2022-12-18T07:25:10;26.00;;;11.83;;
24901;SDS011;31328;51.402;0.016;2022-12-18T07:27:36;28.27;;;12.20;;
24901;SDS011;31328;51.402;0.016;2022-12-18T07:30:03;26.13;;;13.13;;
24901;SDS011;31328;51.402;0.016;2022-12-18T07:32:30;29.00;;;13.80;;
24901;SDS011;31328;51.402;0.016;2022-12-18T07:34:56;27.50;;;12.93;;
24901;SDS011;31328;51.402;0.016;2022-12-18T07:37:22;28.50;;;12.17;;
24901;SDS011;31328;51.402;0.016;2022-12-18T07:39:48;27.70;;;12.73;;
24901;SDS011;31328;51.402;0.016;2022-12-18T07:42:15;25.27;;;12.73;;
24901;SDS011;31328;51.402;0.016;2022-12-18T07:44:56;28.13;;;12.90;;
24901;SDS011;31328;51.402;0.016;2022-12-18T07:47:27;31.30;;;13.73;;
24901;SDS011;31328;51.402;0.016;2022-12-18T07:49:57;30.17;;;13.73;;
24901;SDS011;31328;51.402;0.016;2022-12-18T07:52:23;28.13;;;12.87;;
24901;SDS011;31328;51.402;0.016;2022-12-18T07:54:50;26.37;;;13.87;;
24901;SDS011;31328;51.402;0.016;2022-12-18T07:57:16;27.97;;;13.37;;
24901;SDS011;31328;51.402;0.016;2022-12-18T07:59:43;26.93;;;12.63;;
24901;SDS011;31328;51.402;0.016;2022-12-18T08:02:09;27.50;;;13.43;;
24901;SDS011;31328;51.402;0.016;2022-12-18T08:04:36;28.83;;;12.70;;
24901;SDS011;31328;51.402;0.016;2022-12-18T08:07:02;28.77;;;13.30;;
24901;SDS011;31328;51.402;0.016;2022-12-18T08:09:28;31.40;;;13.50;;
24901;SDS011;31328;51.402;0.016;2022-12-18T08:11:55;28.27;;;13.97;;
24901;SDS011;31328;51.402;0.016;2022-12-18T08:14:21;31.70;;;14.17;;
24901;SDS011;31328;51.402;0.016;2022-12-18T08:16:47;31.87;;;14.07;;
24901;SDS011;31328;51.402;0.016;2022-12-18T08:19:13;30.33;;;13.60;;
24901;SDS011;31328;51.402;0.016;2022-12-18T08:21:40;28.53;;;13.90;;
24901;SDS011;31328;51.402;0.016;2022-12-18T08:24:06;29.07;;;14.17;;
24901;SDS011;31328;51.402;0.016;2022-12-18T08:26:34;36.40;;;14.93;;
24901;SDS011;31328;51.402;0.016;2022-12-18T08:29:00;26.83;;;13.73;;
24901;SDS011;31328;51.402;0.016;2022-12-18T08:31:28;24.00;;;13.37;;
24901;SDS011;31328;51.402;0.016;2022-12-18T08:33:55;29.03;;;13.17;;
24901;SDS011;31328;51.402;0.016;2022-12-18T08:36:22;31.40;;;13.33;;
24901;SDS011;31328;51.402;0.016;2022-12-18T08:38:49;31.20;;;14.37;;
24901;SDS011;31328;51.402;0.016;2022-12-18T08:41:16;27.27;;;14.07;;
24901;SDS011;31328;51.402;0.016;2022-12-18T08:43:44;29.57;;;13.63;;
24901;SDS011;31328;51.402;0.016;2022-12-18T08:48:59;29.97;;;14.33;;
24901;SDS011;31328;51.402;0.016;2022-12-18T08:51:26;28.00;;;13.60;;
24901;SDS011;31328;51.402;0.016;2022-12-18T08:53:52;28.00;;;13.80;;
24901;SDS011;31328;51.402;0.016;2022-12-18T08:56:18;29.17;;;13.87;;
24901;SDS011;31328;51.402;0.016;2022-12-18T08:58:44;28.53;;;14.03;;
24901;SDS011;31328;51.402;0.016;2022-12-18T09:01:11;28.87;;;14.20;;
24901;SDS011;31328;51.402;0.016;2022-12-18T09:03:39;29.30;;;14.27;;
24901;SDS011;31328;51.402;0.016;2022-12-18T09:06:05;28.23;;;14.10;;
24901;SDS011;31328;51.402;0.016;2022-12-18T09:08:32;27.10;;;14.27;;
24901;SDS011;31328;51.402;0.016;2022-12-18T09:11:02;28.83;;;15.43;;
24901;SDS011;31328;51.402;0.016;2022-12-18T09:13:29;27.40;;;14.33;;
24901;SDS011;31328;51.402;0.016;2022-12-18T09:15:55;30.13;;;14.47;;
24901;SDS011;31328;51.402;0.016;2022-12-18T09:18:22;33.03;;;14.60;;
24901;SDS011;31328;51.402;0.016;2022-12-18T09:20:49;33.67;;;15.63;;
24901;SDS011;31328;51.402;0.016;2022-12-18T09:23:18;27.27;;;14.07;;
24901;SDS011;31328;51.402;0.016;2022-12-18T09:25:44;30.10;;;14.57;;
24901;SDS011;31328;51.402;0.016;2022-12-18T09:28:14;30.33;;;14.10;;
24901;SDS011;31328;51.402;0.016;2022-12-18T09:30:44;26.70;;;13.97;;
24901;SDS011;31328;51.402;0.016;2022-12-18T09:33:11;31.27;;;15.43;;
24901;SDS011;31328;51.402;0.016;2022-12-18T09:35:38;26.30;;;14.77;;
24901;SDS011;31328;51.402;0.016;2022-12-18T09:38:06;25.57;;;14.10;;
24901;SDS011;31328;51.402;0.016;2022-12-18T09:40:35;31.97;;;14.77;;
24901;SDS011;31328;51.402;0.016;2022-12-18T09:43:09;28.10;;;14.87;;
24901;SDS011;31328;51.402;0.016;2022-12-18T09:45:58;32.13;;;15.60;;
24901;SDS011;31328;51.402;0.016;2022-12-18T09:48:31;28.93;;;14.93;;
24901;SDS011;31328;51.402;0.016;2022-12-18T09:51:02;34.93;;;15.53;;
24901;SDS011;31328;51.402;0.016;2022-12-18T09:53:35;30.37;;;14.53;;
24901;SDS011;31328;51.402;0.016;2022-12-18T09:56:05;29.23;;;14.53;;
24901;SDS011;31328;51.402;0.016;2022-12-18T10:01:20;29.73;;;14.20;;
24901;SDS011;31328;51.402;0.016;2022-12-18T10:03:48;26.50;;;13.13;;
24901;SDS011;31328;51.402;0.016;2022-12-18T10:06:18;30.17;;;14.10;;
24901;SDS011;31328;51.402;0.016;2022-12-18T10:08:53;29.03;;;15.40;;
24901;SDS011;31328;51.402;0.016;2022-12-18T10:19:45;27.37;;;13.63;;
24901;SDS011;31328;51.402;0.016;2022-12-18T10:27:53;27.13;;;13.90;;
24901;SDS011;31328;51.402;0.016;2022-12-18T10:30:23;24.43;;;12.93;;
24901;SDS011;31328;51.402;0.016;2022-12-18T10:32:51;25.40;;;12.40;;
24901;SDS011;31328;51.402;0.016;2022-12-18T10:38:05;27.17;;;13.03;;
24901;SDS011;31328;51.402;0.016;2022-12-18T10:43:37;24.90;;;13.63;;
24901;SDS011;31328;51.402;0.016;2022-12-18T10:48:35;22.80;;;13.10;;
24901;SDS011;31328;51.402;0.016;2022-12-18T10:51:06;21.73;;;11.50;;
24901;SDS011;31328;51.402;0.016;2022-12-18T10:53:34;25.00;;;12.83;;
24901;SDS011;31328;51.402;0.016;2022-12-18T10:56:03;26.30;;;13.53;;
24901;SDS011;31328;51.402;0.016;2022-12-18T10:58:31;23.10;;;12.40;;
24901;SDS011;31328;51.402;0.016;2022-12-18T11:01:04;21.83;;;12.40;;
24901;SDS011;31328;51.402;0.016;2022-12-18T11:03:46;23.93;;;12.57;;
24901;SDS011;31328;51.402;0.016;2022-12-18T11:06:17;26.63;;;14.30;;
24901;SDS011;31328;51.402;0.016;2022-12-18T11:08:57;23.27;;;12.40;;
24901;SDS011;31328;51.402;0.016;2022-12-18T11:11:27;27.33;;;13.03;;
24901;SDS011;31328;51.402;0.016;2022-12-18T11:16:50;27.33;;;13.23;;
24901;SDS011;31328;51.402;0.016;2022-12-18T11:24:55;25.17;;;13.70;;
24901;SDS011;31328;51.402;0.016;2022-12-18T11:27:26;27.20;;;14.93;;
24901;SDS011;31328;51.402;0.016;2022-12-18T11:30:07;25.67;;;13.80;;
24901;SDS011;31328;51.402;0.016;2022-12-18T11:32:39;31.93;;;14.63;;
24901;SDS011;31328;51.402;0.016;2022-12-18T11:35:13;26.87;;;14.93;;
24901;SDS011;31328;51.402;0.016;2022-12-18T11:37:49;27.65;;;13.77;;
24901;SDS011;31328;51.402;0.016;2022-12-18T11:40:36;27.23;;;15.27;;
24901;SDS011;31328;51.402;0.016;2022-12-18T11:43:08;27.80;;;14.47;;
24901;SDS011;31328;51.402;0.016;2022-12-18T11:45:41;25.93;;;13.27;;
24901;SDS011;31328;51.402;0.016;2022-12-18T11:50:54;27.70;;;13.40;;
24901;SDS011;31328;51.402;0.016;2022-12-18T11:53:21;24.95;;;13.80;;
24901;SDS011;31328;51.402;0.016;2022-12-18T11:56:03;26.60;;;15.03;;
24901;SDS011;31328;51.402;0.016;2022-12-18T11:58:46;25.90;;;14.68;;
24901;SDS011;31328;51.402;0.016;2022-12-18T12:09:23;28.10;;;15.27;;
24901;SDS011;31328;51.402;0.016;2022-12-18T12:11:57;24.40;;;13.07;;
24901;SDS011;31328;51.402;0.016;2022-12-18T12:14:58;26.47;;;13.87;;
24901;SDS011;31328;51.402;0.016;2022-12-18T12:18:04;22.20;;;13.30;;
24901;SDS011;31328;51.402;0.016;2022-12-18T12:23:34;26.00;;;12.83;;
24901;SDS011;31328;51.402;0.016;2022-12-18T12:26:11;25.57;;;13.93;;
24901;SDS011;31328;51.402;0.016;2022-12-18T12:29:01;25.37;;;15.80;;
24901;SDS011;31328;51.402;0.016;2022-12-18T12:34:57;31.30;;;15.07;;
24901;SDS011;31328;51.402;0.016;2022-12-18T12:40:03;28.03;;;14.20;;
24901;SDS011;31328;51.402;0.016;2022-12-18T12:42:50;26.97;;;13.90;;
24901;SDS011;31328;51.402;0.016;2022-12-18T12:45:58;28.90;;;13.97;;
24901;SDS011;31328;51.402;0.016;2022-12-18T12:54:08;24.87;;;13.70;;
24901;SDS011;31328;51.402;0.016;2022-12-18T12:56:50;25.90;;;13.70;;
24901;SDS011;31328;51.402;0.016;2022-12-18T13:07:46;28.20;;;14.10;;
24901;SDS011;31328;51.402;0.016;2022-12-18T13:12:55;25.27;;;13.63;;
24901;SDS011;31328;51.402;0.016;2022-12-18T13:15:29;23.87;;;13.30;;
24901;SDS011;31328;51.402;0.016;2022-12-18T13:18:18;24.30;;;12.43;;
24901;SDS011;31328;51.402;0.016;2022-12-18T13:31:13;24.17;;;12.83;;
24901;SDS011;31328;51.402;0.016;2022-12-18T13:34:18;23.20;;;12.93;;
24901;SDS011;31328;51.402;0.016;2022-12-18T13:36:50;23.60;;;12.47;;
24901;SDS011;31328;51.402;0.016;2022-12-18T13:41:45;22.83;;;11.50;;
24901;SDS011;31328;51.402;0.016;2022-12-18T13:46:49;22.97;;;11.43;;
24901;SDS011;31328;51.402;0.016;2022-12-18T13:51:52;17.90;;;10.70;;
24901;SDS011;31328;51.402;0.016;2022-12-18T13:57:03;19.23;;;10.27;;
24901;SDS011;31328;51.402;0.016;2022-12-18T13:59:35;19.83;;;11.07;;
24901;SDS011;31328;51.402;0.016;2022-12-18T14:02:12;22.80;;;10.93;;
24901;SDS011;31328;51.402;0.016;2022-12-18T14:04:40;19.00;;;9.97;;
24901;SDS011;31328;51.402;0.016;2022-12-18T14:07:07;19.37;;;9.87;;
24901;SDS011;31328;51.402;0.016;2022-12-18T14:10:00;17.40;;;10.30;;
24901;SDS011;31328;51.402;0.016;2022-12-18T14:12:31;19.08;;;10.27;;
24901;SDS011;31328;51.402;0.016;2022-12-18T14:15:24;21.43;;;10.20;;
24901;SDS011;31328;51.402;0.016;2022-12-18T14:17:53;20.10;;;11.05;;
24901;SDS011;31328;51.402;0.016;2022-12-18T14:20:31;22.27;;;11.73;;
24901;SDS011;31328;51.402;0.016;2022-12-18T14:22:59;19.17;;;11.17;;
24901;SDS011;31328;51.402;0.016;2022-12-18T14:25:27;19.97;;;10.97;;
24901;SDS011;31328;51.402;0.016;2022-12-18T14:30:39;19.10;;;10.77;;
24901;SDS011;31328;51.402;0.016;2022-12-18T14:35:35;17.87;;;10.47;;
24901;SDS011;31328;51.402;0.016;2022-12-18T14:40:45;23.23;;;12.30;;
24901;SDS011;31328;51.402;0.016;2022-12-18T14:43:12;19.77;;;10.23;;
24901;SDS011;31328;51.402;0.016;2022-12-18T14:45:42;20.33;;;10.23;;
24901;SDS011;31328;51.402;0.016;2022-12-18T14:50:45;16.43;;;9.13;;
24901;SDS011;31328;51.402;0.016;2022-12-18T14:53:23;18.50;;;10.40;;
24901;SDS011;31328;51.402;0.016;2022-12-18T14:55:59;20.30;;;10.33;;
24901;SDS011;31328;51.402;0.016;2022-12-18T14:58:27;21.37;;;10.40;;
24901;SDS011;31328;51.402;0.016;2022-12-18T15:00:53;19.33;;;10.50;;
24901;SDS011;31328;51.402;0.016;2022-12-18T15:03:20;19.47;;;9.50;;
24901;SDS011;31328;51.402;0.016;2022-12-18T15:05:47;20.77;;;11.13;;
24901;SDS011;31328;51.402;0.016;2022-12-18T15:08:24;17.43;;;9.63;;
24901;SDS011;31328;51.402;0.016;2022-12-18T15:10:59;17.33;;;10.07;;
24901;SDS011;31328;51.402;0.016;2022-12-18T15:13:26;20.97;;;10.17;;
24901;SDS011;31328;51.402;0.016;2022-12-18T15:15:53;19.30;;;10.87;;
24901;SDS011;31328;51.402;0.016;2022-12-18T15:18:32;19.17;;;10.93;;
24901;SDS011;31328;51.402;0.016;2022-12-18T15:21:08;18.43;;;9.70;;
24901;SDS011;31328;51.402;0.016;2022-12-18T15:23:36;18.23;;;10.03;;
24901;SDS011;31328;51.402;0.016;2022-12-18T15:26:10;16.10;;;8.82;;
24901;SDS011;31328;51.402;0.016;2022-12-18T15:28:39;17.00;;;8.97;;
24901;SDS011;31328;51.402;0.016;2022-12-18T15:34:22;16.33;;;9.30;;
24901;SDS011;31328;51.402;0.016;2022-12-18T15:36:24;17.00;;;9.40;;
24901;SDS011;31328;51.402;0.016;2022-12-18T15:38:55;17.90;;;9.57;;
24901;SDS011;31328;51.402;0.016;2022-12-18T15:41:25;18.77;;;9.57;;
24901;SDS011;31328;51.402;0.016;2022-12-18T15:43:52;19.93;;;9.87;;
24901;SDS011;31328;51.402;0.016;2022-12-18T15:46:23;17.60;;;9.03;;
24901;SDS011;31328;51.402;0.016;2022-12-18T15:48:51;18.10;;;9.80;;
24901;SDS011;31328;51.402;0.016;2022-12-18T15:51:34;16.10;;;9.00;;
24901;SDS011;31328;51.402;0.016;2022-12-18T15:54:03;17.87;;;9.90;;
24901;SDS011;31328;51.402;0.016;2022-12-18T15:56:31;17.73;;;9.90;;
24901;SDS011;31328;51.402;0.016;2022-12-18T15:59:18;20.63;;;9.20;;
24901;SDS011;31328;51.402;0.016;2022-12-18T16:01:46;16.50;;;9.13;;
24901;SDS011;31328;51.402;0.016;2022-12-18T16:04:14;18.73;;;10.27;;
24901;SDS011;31328;51.402;0.016;2022-12-18T16:06:42;18.30;;;9.57;;
24901;SDS011;31328;51.402;0.016;2022-12-18T16:09:08;16.83;;;9.57;;
24901;SDS011;31328;51.402;0.016;2022-12-18T16:11:36;17.30;;;9.33;;
24901;SDS011;31328;51.402;0.016;2022-12-18T16:14:12;14.87;;;8.40;;
24901;SDS011;31328;51.402;0.016;2022-12-18T16:16:46;17.70;;;8.33;;
24901;SDS011;31328;51.402;0.016;2022-12-18T16:19:14;17.90;;;8.87;;
24901;SDS011;31328;51.402;0.016;2022-12-18T16:21:42;13.13;;;8.00;;
24901;SDS011;31328;51.402;0.016;2022-12-18T16:24:13;15.67;;;7.50;;
24901;SDS011;31328;51.402;0.016;2022-12-18T16:26:42;12.33;;;7.40;;
24901;SDS011;31328;51.402;0.016;2022-12-18T16:29:09;15.47;;;7.47;;
24901;SDS011;31328;51.402;0.016;2022-12-18T16:31:36;13.60;;;7.10;;
24901;SDS011;31328;51.402;0.016;2022-12-18T16:34:13;12.17;;;6.77;;
24901;SDS011;31328;51.402;0.016;2022-12-18T16:36:49;13.27;;;6.37;;
24901;SDS011;31328;51.402;0.016;2022-12-18T16:39:16;13.07;;;7.17;;
24901;SDS011;31328;51.402;0.016;2022-12-18T16:41:42;10.03;;;5.43;;
24901;SDS011;31328;51.402;0.016;2022-12-18T16:44:09;10.50;;;6.37;;
24901;SDS011;31328;51.402;0.016;2022-12-18T16:46:36;11.60;;;5.40;;
24901;SDS011;31328;51.402;0.016;2022-12-18T16:49:03;8.53;;;4.77;;
24901;SDS011;31328;51.402;0.016;2022-12-18T16:51:29;9.00;;;5.23;;
24901;SDS011;31328;51.402;0.016;2022-12-18T16:53:58;8.37;;;4.43;;
24901;SDS011;31328;51.402;0.016;2022-12-18T16:56:25;7.13;;;4.93;;
24901;SDS011;31328;51.402;0.016;2022-12-18T16:58:51;7.80;;;4.37;;
24901;SDS011;31328;51.402;0.016;2022-12-18T17:01:19;8.03;;;5.10;;
24901;SDS011;31328;51.402;0.016;2022-12-18T17:03:52;7.50;;;4.70;;
24901;SDS011;31328;51.402;0.016;2022-12-18T17:06:23;6.78;;;4.43;;